Last 7 Days

Williams 2

Hourly Data | America/Los_Angeles
as of 3/7/21 12:28 PM PST
Date & Time Temp (°F) RH (%) Dew Pt (°F) Wind Spd (mph) Wind Dir (°) Wind Gust (mph) Latest Rain (In) Daily Rain (In) Daily Min Temp (°F) Daily Max Temp (°F)
3/7/21 - 1200 60.5 41 36.5 3.9 SSE | 167 8.1 0.00 0.00 38.3 61.4
3/7/21 - 1100 58.9 38 33.3 2.2 S | 187 7.1 0.00 0.00 38.3 60.8
3/7/21 - 1000 55.2 41 31.6 3.5 NW | 326 9.5 0.00 0.00 38.3 57.4
3/7/21 - 0900 51.2 42 29.1 5.3 NNW | 346 11.1 0.00 0.00 38.3 53.1
3/7/21 - 0800 45.8 54 29.9 4.9 N | 349 10.5 0.00 0.00 38.3 48.8
3/7/21 - 0700 42.0 66 31.3 6.5 NNW | 335 14.8 0.00 0.00 38.3 48.0
3/7/21 - 0600 39.9 75 32.7 4.4 NNW | 345 7.8 0.00 0.00 38.3 48.0
3/7/21 - 0500 39.5 79 33.5 4.5 N | 360 8.1 0.00 0.00 38.3 48.0
3/7/21 - 0400 40.5 75 33.0 2.4 N | 9 5.8 0.00 0.00 38.3 48.0
3/7/21 - 0300 44.6 67 34.2 4.7 NNW | 334 10.5 0.00 0.00 43.5 48.0
3/7/21 - 0200 47.4 66 36.4 8.7 NNW | 341 15.2 0.00 0.00 43.8 48.0
3/7/21 - 0100 45.0 74 37.2 5.2 NW | 322 13.5 0.00 0.00 43.8 48.0
3/7/21 - 0000 46.7 71 37.7 6.7 NNW | 336 11.5 0.00 0.07 36.9 63.1
3/6/21 - 2300 43.6 87 39.9 4.1 NNW | 332 9.1 0.00 0.07 36.9 63.1
3/6/21 - 2200 39.7 92 37.6 0.2 NNW | 333 3.8 0.00 0.07 36.9 63.1
3/6/21 - 2100 41.9 91 39.6 1.4 N | 352 3.8 0.00 0.07 36.9 63.1
3/6/21 - 2000 43.5 89 40.4 1.4 NNW | 344 4.1 0.00 0.07 36.9 63.1
3/6/21 - 1900 47.9 80 42.1 0.3 N | 8 2.4 0.00 0.07 36.9 63.1
3/6/21 - 1800 55.6 66 44.2 2.4 W | 274 8.1 0.00 0.07 36.9 63.1
3/6/21 - 1700 61.2 53 43.7 3.4 SSW | 210 9.5 0.00 0.07 36.9 63.1
3/6/21 - 1600 61.0 53 44.0 2.8 SSW | 200 8.1 0.00 0.07 36.9 63.0
3/6/21 - 1500 61.8 50 42.8 3.1 SE | 139 8.8 0.00 0.07 36.9 62.9
3/6/21 - 1400 59.8 54 43.4 3.1 SE | 130 10.1 0.00 0.07 36.9 62.0
3/6/21 - 1300 59.3 56 43.5 3.2 N | 357 9.1 0.00 0.07 36.9 60.5
3/6/21 - 1200 57.3 58 42.8 3.1 WNW | 297 10.1 0.00 0.07 36.9 58.9
3/6/21 - 1100 54.4 63 42.3 3.6 NW | 304 9.8 0.00 0.07 36.9 56.1
3/6/21 - 1000 50.6 72 41.9 2.9 NNW | 339 9.1 0.00 0.07 36.9 53.1
3/6/21 - 0900 47.0 81 41.6 0.3 NW | 319 6.8 0.00 0.07 36.9 48.4
3/6/21 - 0800 40.6 93 38.8 1.1 E | 89 4.1 0.00 0.07 36.9 45.6
3/6/21 - 0700 39.0 90 36.4 1.9 N | 359 6.8 0.00 0.07 36.9 45.2
3/6/21 - 0600 42.2 87 38.5 4.2 NE | 40 10.5 0.00 0.07 40.2 45.2
3/6/21 - 0500 41.2 92 39.1 3.5 NW | 326 8.1 0.00 0.07 40.2 45.2
3/6/21 - 0400 42.2 92 40.2 2.7 NE | 54 8.1 0.00 0.07 40.6 45.2
3/6/21 - 0300 43.9 92 41.6 2.1 S | 176 7.4 0.00 0.07 42.6 45.2
3/6/21 - 0200 44.4 92 42.2 3.6 WSW | 238 13.8 0.00 0.07 44.1 45.2
3/6/21 - 0100 44.6 90 41.9 4.3 N | 350 12.5 0.07 0.07 44.3 45.2
3/6/21 - 0000 47.0 87 43.3 14.2 NW | 306 25.9 0.08 0.10 38.9 65.1
3/5/21 - 2300 53.1 84 48.4 6.6 SSE | 165 21.2 0.02 0.02 38.9 65.1
3/5/21 - 2200 51.9 90 48.9 2.9 SSE | 168 8.8 0.00 0.00 38.9 65.1
3/5/21 - 2100 53.7 84 48.9 6.4 SW | 215 16.5 0.00 0.00 38.9 65.1
3/5/21 - 2000 53.4 84 48.7 6.0 WSW | 246 16.2 0.00 0.00 38.9 65.1
3/5/21 - 1900 53.1 81 47.4 3.7 W | 266 12.1 0.00 0.00 38.9 65.1
3/5/21 - 1800 56.9 70 47.3 2.8 SW | 222 10.1 0.00 0.00 38.9 65.1
3/5/21 - 1700 61.5 60 47.4 6.3 SW | 219 13.2 0.00 0.00 38.9 65.1
3/5/21 - 1600 64.0 53 46.7 5.4 WSW | 239 12.1 0.00 0.00 38.9 65.1
3/5/21 - 1500 64.0 53 46.8 4.9 WSW | 257 12.5 0.00 0.00 38.9 65.1
3/5/21 - 1400 63.8 54 47.0 4.8 WSW | 238 11.1 0.00 0.00 38.9 64.5
3/5/21 - 1300 62.7 56 46.6 5.9 SW | 228 11.5 0.00 0.00 38.9 63.4
3/5/21 - 1200 61.3 56 45.7 5.7 SSW | 212 11.5 0.00 0.00 38.9 62.6
3/5/21 - 1100 61.0 55 44.7 5.9 SSW | 201 11.5 0.00 0.00 38.9 61.6
3/5/21 - 1000 59.9 54 43.0 1.9 E | 84 7.4 0.00 0.00 38.9 61.5
3/5/21 - 0900 52.1 71 42.8 2.8 NNW | 347 6.8 0.00 0.00 38.9 56.8
3/5/21 - 0800 41.9 86 37.9 4.5 NNW | 346 8.8 0.00 0.00 38.9 46.1
3/5/21 - 0700 40.8 86 37.0 3.8 N | 351 7.1 0.00 0.00 39.5 44.5
3/5/21 - 0600 40.5 89 37.5 4.3 NNW | 346 8.1 0.00 0.00 39.5 44.5
3/5/21 - 0500 40.8 89 37.9 4.2 NNW | 342 7.8 0.00 0.00 39.6 44.5
3/5/21 - 0400 42.8 86 39.0 4.7 NNW | 345 9.8 0.00 0.00 41.8 44.5
3/5/21 - 0300 44.0 82 38.8 5.0 N | 353 8.8 0.00 0.00 42.8 44.5
3/5/21 - 0200 43.6 80 37.8 5.0 N | 357 9.8 0.00 0.00 42.8 44.5
3/5/21 - 0100 43.5 78 37.3 4.6 N | 349 8.4 0.00 0.00 42.8 44.5
3/5/21 - 0000 44.5 75 37.2 5.4 N | 350 8.8 0.00 0.00 32.4 65.6
3/4/21 - 2300 42.2 77 35.6 3.6 N | 349 9.1 0.00 0.00 32.4 65.6
3/4/21 - 2200 42.7 75 35.3 2.2 N | 354 6.8 0.00 0.00 32.4 65.6
3/4/21 - 2100 43.1 76 36.0 1.9 N | 360 5.8 0.00 0.00 32.4 65.6
3/4/21 - 2000 50.2 58 35.8 2.0 ENE | 62 6.8 0.00 0.00 32.4 65.6
3/4/21 - 1900 51.2 63 38.9 1.7 N | 358 7.4 0.00 0.00 32.4 65.6
3/4/21 - 1800 58.4 49 39.1 2.3 SW | 230 8.1 0.00 0.00 32.4 65.6
3/4/21 - 1700 63.4 39 38.2 4.2 WSW | 255 8.4 0.00 0.00 32.4 65.6
3/4/21 - 1600 64.8 36 36.9 4.0 SW | 227 9.1 0.00 0.00 32.4 65.6
3/4/21 - 1500 63.9 39 38.3 4.3 SW | 214 9.5 0.00 0.00 32.4 65.1
3/4/21 - 1400 62.4 44 40.2 4.7 SSW | 193 9.5 0.00 0.00 32.4 63.7
3/4/21 - 1300 60.7 48 40.7 5.6 SSW | 200 11.5 0.00 0.00 32.4 61.6
3/4/21 - 1200 59.7 53 42.4 5.7 SSE | 168 11.8 0.00 0.00 32.4 60.6
3/4/21 - 1100 58.1 56 42.5 3.4 SE | 144 8.8 0.00 0.00 32.4 59.1
3/4/21 - 1000 54.6 63 42.2 1.5 SE | 132 5.1 0.00 0.00 32.4 56.5
3/4/21 - 0900 48.5 79 42.1 3.4 NNW | 340 7.4 0.00 0.00 32.4 52.0
3/4/21 - 0800 39.0 94 37.5 4.8 NNW | 339 11.5 0.00 0.00 32.4 43.2
3/4/21 - 0700 34.6 96 33.5 2.2 N | 355 8.1 0.00 0.00 32.4 41.5
3/4/21 - 0600 35.0 93 33.2 0.4 NNE | 28 2.7 0.00 0.00 33.0 41.5
3/4/21 - 0500 39.4 93 37.6 0.9 NW | 316 6.4 0.00 0.00 34.1 41.5
3/4/21 - 0400 36.3 96 35.2 0.8 WNW | 295 4.8 0.00 0.00 34.1 41.5
3/4/21 - 0300 36.0 94 34.5 0.8 NNE | 18 4.8 0.00 0.00 34.2 41.5
3/4/21 - 0200 37.3 94 35.7 0.9 NE | 56 4.1 0.00 0.00 36.4 41.5
3/4/21 - 0100 38.5 91 36.2 1.5 ENE | 57 5.8 0.00 0.00 36.4 41.5
3/4/21 - 0000 37.7 94 36.1 1.7 N | 3 8.4 0.00 0.00 35.6 69.7
3/3/21 - 2300 38.0 91 35.7 1.2 NE | 40 4.4 0.00 0.00 36.3 69.7
3/3/21 - 2200 42.5 84 38.0 1.4 NE | 39 7.4 0.00 0.00 36.3 69.7
3/3/21 - 2100 46.6 78 40.0 3.2 SSW | 192 13.5 0.00 0.00 36.3 69.7
3/3/21 - 2000 49.2 74 41.2 4.6 SSW | 194 18.2 0.00 0.00 36.3 69.7
3/3/21 - 1900 50.4 75 42.8 6.3 SSE | 163 10.8 0.00 0.00 36.3 69.7
3/3/21 - 1800 55.4 65 43.9 8.1 S | 177 15.5 0.00 0.00 36.3 69.7
3/3/21 - 1700 58.5 63 46.0 7.5 SSE | 160 12.8 0.00 0.00 36.3 69.7
3/3/21 - 1600 63.9 46 42.8 3.8 ESE | 114 10.8 0.00 0.00 36.3 69.7
3/3/21 - 1500 66.1 33 35.8 3.1 NE | 35 9.5 0.00 0.00 36.3 69.7
3/3/21 - 1400 68.2 31 36.3 3.4 NW | 319 8.8 0.00 0.00 36.3 69.7
3/3/21 - 1300 67.2 39 41.5 2.8 ESE | 121 8.4 0.00 0.00 36.3 69.1
3/3/21 - 1200 63.9 46 42.6 4.2 SSE | 155 8.8 0.00 0.00 36.3 65.9
3/3/21 - 1100 61.5 45 40.0 3.6 S | 183 7.1 0.00 0.00 36.3 63.3
3/3/21 - 1000 57.4 47 37.4 1.1 W | 259 4.1 0.00 0.00 36.3 62.2
3/3/21 - 0900 48.8 65 37.6 1.8 N | 359 5.4 0.00 0.00 36.3 51.8
3/3/21 - 0800 42.6 72 34.0 3.5 NNW | 343 7.1 0.00 0.00 36.3 49.4
3/3/21 - 0700 37.7 79 31.9 1.4 NNE | 28 5.8 0.00 0.00 36.3 49.4
3/3/21 - 0600 43.3 64 31.9 2.1 N | 7 7.4 0.00 0.00 40.6 49.4
3/3/21 - 0500 47.6 54 31.7 6.7 NNW | 341 10.8 0.00 0.00 45.7 49.4
3/3/21 - 0400 48.1 54 32.0 5.1 NNW | 343 10.1 0.00 0.00 45.7 49.4
3/3/21 - 0300 48.1 54 32.1 7.1 NNW | 334 12.1 0.00 0.00 45.7 48.8
3/3/21 - 0200 47.7 55 32.4 8.5 NNW | 337 13.2 0.00 0.00 45.7 48.5
3/3/21 - 0100 47.1 57 32.6 7.4 NNW | 342 11.8 0.00 0.00 45.7 47.8
3/3/21 - 0000 45.4 64 34.0 5.1 N | 349 9.1 0.00 0.00 33.5 70.3
3/2/21 - 2300 45.3 69 35.6 4.5 N | 350 8.4 0.00 0.00 33.5 70.3
3/2/21 - 2200 47.4 67 36.9 4.0 NNW | 346 7.4 0.00 0.00 33.5 70.3
3/2/21 - 2100 48.1 68 37.9 4.0 NNW | 345 6.4 0.00 0.00 33.5 70.3
3/2/21 - 2000 49.6 66 38.8 4.0 NNW | 342 6.8 0.00 0.00 33.5 70.3
3/2/21 - 1900 53.0 63 40.8 3.3 N | 354 7.1 0.00 0.00 33.5 70.3
3/2/21 - 1800 59.0 57 43.8 1.3 NE | 46 4.1 0.00 0.00 33.5 70.3
3/2/21 - 1700 65.4 43 42.2 1.0 SSE | 161 4.1 0.00 0.00 33.5 70.3
3/2/21 - 1600 68.2 34 38.9 2.3 SSW | 201 5.8 0.00 0.00 33.5 70.3
3/2/21 - 1500 69.8 31 37.6 3.3 SSW | 198 7.4 0.00 0.00 33.5 70.3
3/2/21 - 1400 68.8 32 37.8 3.5 SSW | 202 8.1 0.00 0.00 33.5 69.7
3/2/21 - 1300 66.6 36 38.6 3.1 S | 175 7.8 0.00 0.00 33.5 67.9
3/2/21 - 1200 63.2 42 39.8 3.0 S | 174 6.8 0.00 0.00 33.5 65.2
3/2/21 - 1100 58.7 45 37.2 3.3 S | 171 7.4 0.00 0.00 33.5 60.9
3/2/21 - 1000 54.7 51 37.0 1.8 SE | 146 4.4 0.00 0.00 33.5 56.7
3/2/21 - 0900 47.5 64 35.9 1.0 S | 180 5.8 0.00 0.00 33.5 52.2
3/2/21 - 0800 36.0 86 32.1 1.0 E | 97 4.1 0.00 0.00 33.5 47.7
3/2/21 - 0700 35.5 79 29.4 1.2 NNE | 13 4.4 0.00 0.00 33.5 47.7
3/2/21 - 0600 36.8 76 29.8 1.4 N | 356 5.1 0.00 0.00 34.4 47.7
3/2/21 - 0500 36.7 76 29.9 1.7 N | 353 4.8 0.00 0.00 34.4 47.7
3/2/21 - 0400 39.7 67 29.5 0.5 NE | 46 3.1 0.00 0.00 35.3 47.7
3/2/21 - 0300 47.1 47 27.8 6.3 NNW | 337 10.5 0.00 0.00 44.8 47.7
3/2/21 - 0200 46.4 50 28.7 7.6 NNW | 331 12.1 0.00 0.00 44.8 47.1
3/2/21 - 0100 45.8 52 29.3 7.5 NNW | 336 11.8 0.00 0.00 44.8 46.5
3/2/21 - 0000 46.6 50 29.0 7.1 NNW | 343 10.8 0.00 0.00 34.7 67.6
3/1/21 - 2300 46.9 51 29.8 7.3 NNW | 345 11.8 0.00 0.00 34.7 67.6
3/1/21 - 2200 47.2 54 31.4 5.8 NNW | 345 10.1 0.00 0.00 34.7 67.6
3/1/21 - 2100 46.2 60 33.2 4.7 NNW | 338 8.8 0.00 0.00 34.7 67.6
3/1/21 - 2000 48.4 58 34.2 5.5 NNW | 344 9.1 0.00 0.00 34.7 67.6
3/1/21 - 1900 50.1 58 35.7 4.9 N | 349 8.4 0.00 0.00 34.7 67.6
3/1/21 - 1800 58.6 44 36.3 3.5 NNW | 345 6.8 0.00 0.00 34.7 67.6
3/1/21 - 1700 64.6 33 34.6 3.5 NW | 318 7.4 0.00 0.00 34.7 67.6
3/1/21 - 1600 66.7 31 35.5 3.4 WSW | 254 8.8 0.00 0.00 34.7 67.6
3/1/21 - 1500 66.6 32 35.5 4.0 S | 187 11.8 0.00 0.00 34.7 67.6
3/1/21 - 1400 66.0 34 36.5 3.2 S | 181 8.1 0.00 0.00 34.7 66.8
3/1/21 - 1300 64.1 34 35.3 3.8 S | 185 8.8 0.00 0.00 34.7 65.3
3/1/21 - 1200 63.0 32 32.9 4.4 S | 174 10.8 0.00 0.00 34.7 63.9
3/1/21 - 1100 60.1 45 38.7 3.9 SE | 128 8.4 0.00 0.00 34.7 62.7
3/1/21 - 1000 55.9 55 39.8 2.3 SSE | 159 6.1 0.00 0.00 34.7 58.2
3/1/21 - 0900 47.6 69 38.0 2.0 NW | 322 5.1 0.00 0.00 34.7 51.6
3/1/21 - 0800 39.2 81 34.0 3.5 NNW | 330 8.4 0.00 0.00 34.7 43.4
3/1/21 - 0700 35.4 86 31.8 2.6 NNW | 340 7.8 0.00 0.00 34.7 43.2
3/1/21 - 0600 36.7 83 32.0 4.2 NNW | 331 7.1 0.00 0.00 36.0 43.2
3/1/21 - 0500 37.8 81 32.4 5.7 NNW | 339 11.8 0.00 0.00 36.6 43.2
3/1/21 - 0400 37.8 80 32.1 5.4 NNW | 334 8.1 0.00 0.00 36.8 43.2
3/1/21 - 0300 39.1 77 32.4 6.4 NNW | 339 10.5 0.00 0.00 38.1 43.2
3/1/21 - 0200 40.3 73 32.3 6.6 NNW | 341 9.8 0.00 0.00 39.4 43.2
3/1/21 - 0100 42.4 68 32.4 6.9 NNW | 342 11.5 0.00 0.00 41.0 43.2
3/1/21 - 0000 43.8 64 32.4 6.2 NNW | 345 11.5 0.00 0.00 35.0 68.1
2/28/21 - 2300 44.4 63 32.6 6.7 NNW | 347 10.8 0.00 0.00 35.0 68.1
2/28/21 - 2200 44.3 64 33.1 6.0 NNW | 342 10.8 0.00 0.00 35.0 68.1
2/28/21 - 2100 44.1 67 33.9 4.1 N | 350 10.5 0.00 0.00 35.0 68.1
2/28/21 - 2000 45.7 65 34.7 2.6 N | 359 6.4 0.00 0.00 35.0 68.1
2/28/21 - 1900 48.0 62 35.4 0.8 NE | 34 3.8 0.00 0.00 35.0 68.1
2/28/21 - 1800 60.8 33 31.0 1.4 SE | 138 7.4 0.00 0.00 35.0 68.1
2/28/21 - 1700 65.8 26 29.6 3.1 E | 90 10.1 0.00 0.00 35.0 68.1
2/28/21 - 1600 67.2 24 29.6 3.3 E | 81 12.1 0.00 0.00 35.0 68.1
2/28/21 - 1500 66.6 25 30.1 4.0 ENE | 71 11.5 0.00 0.00 35.0 67.5
2/28/21 - 1400 65.8 25 29.0 4.4 NE | 50 13.5 0.00 0.00 35.0 66.4
2/28/21 - 1300 64.8 25 27.8 5.6 NNE | 25 19.8 0.00 0.00 35.0 66.4
Max 69.8 96 48.9 14.2 - 25.9 0.08 0.10 45.7 70.3
Avg 50.6 64 37.4 3.9 - 9.0 0.00 - - -
Min 34.6 24 27.8 0.2 - 2.4 0.00 0.00 32.4 41.5
Total - - - - - - 0.17 - - -
Tip: Bookmark this page for easy future reference